sensor_id;sensor_type;location;lat;lon;timestamp;temperature;humidity
3268;DHT22;1646;52.450;13.326;2023-03-22T00:01:15;11.90;99.90
3268;DHT22;1646;52.450;13.326;2023-03-22T00:06:15;11.80;99.90
3268;DHT22;1646;52.450;13.326;2023-03-22T00:11:14;11.70;99.90
3268;DHT22;1646;52.450;13.326;2023-03-22T00:16:13;11.70;99.90
3268;DHT22;1646;52.450;13.326;2023-03-22T00:21:14;11.60;99.90
3268;DHT22;1646;52.450;13.326;2023-03-22T00:26:13;11.60;99.90
3268;DHT22;1646;52.450;13.326;2023-03-22T00:31:13;11.60;99.90
3268;DHT22;1646;52.450;13.326;2023-03-22T00:36:12;11.60;99.90
3268;DHT22;1646;52.450;13.326;2023-03-22T00:41:12;11.70;99.90
3268;DHT22;1646;52.450;13.326;2023-03-22T00:46:16;11.60;99.90
3268;DHT22;1646;52.450;13.326;2023-03-22T00:51:16;11.60;99.90
3268;DHT22;1646;52.450;13.326;2023-03-22T00:56:15;11.60;99.90
3268;DHT22;1646;52.450;13.326;2023-03-22T01:01:26;11.50;99.90
3268;DHT22;1646;52.450;13.326;2023-03-22T01:06:25;11.50;99.90
3268;DHT22;1646;52.450;13.326;2023-03-22T01:11:23;11.50;99.90
3268;DHT22;1646;52.450;13.326;2023-03-22T01:16:22;11.50;99.90
3268;DHT22;1646;52.450;13.326;2023-03-22T01:21:22;11.50;99.90
3268;DHT22;1646;52.450;13.326;2023-03-22T01:26:21;11.40;99.90
3268;DHT22;1646;52.450;13.326;2023-03-22T01:31:19;11.40;99.90
3268;DHT22;1646;52.450;13.326;2023-03-22T01:36:22;11.40;99.90
3268;DHT22;1646;52.450;13.326;2023-03-22T01:41:20;11.40;99.90
3268;DHT22;1646;52.450;13.326;2023-03-22T01:46:19;11.30;99.90
3268;DHT22;1646;52.450;13.326;2023-03-22T01:51:20;11.30;99.90
3268;DHT22;1646;52.450;13.326;2023-03-22T01:56:39;11.30;99.90
3268;DHT22;1646;52.450;13.326;2023-03-22T02:01:44;11.30;99.90
3268;DHT22;1646;52.450;13.326;2023-03-22T02:06:44;11.20;99.90
3268;DHT22;1646;52.450;13.326;2023-03-22T02:11:53;11.10;99.90
3268;DHT22;1646;52.450;13.326;2023-03-22T02:17:09;11.10;99.90
3268;DHT22;1646;52.450;13.326;2023-03-22T02:22:33;11.10;99.90
3268;DHT22;1646;52.450;13.326;2023-03-22T02:28:02;11.10;99.90
3268;DHT22;1646;52.450;13.326;2023-03-22T02:33:38;11.00;99.90
3268;DHT22;1646;52.450;13.326;2023-03-22T02:39:14;11.00;99.90
3268;DHT22;1646;52.450;13.326;2023-03-22T02:44:23;10.90;99.90
3268;DHT22;1646;52.450;13.326;2023-03-22T02:49:30;11.00;99.90
3268;DHT22;1646;52.450;13.326;2023-03-22T02:54:36;11.00;99.90
3268;DHT22;1646;52.450;13.326;2023-03-22T02:59:37;11.00;99.90
3268;DHT22;1646;52.450;13.326;2023-03-22T03:04:42;11.00;99.90
3268;DHT22;1646;52.450;13.326;2023-03-22T03:09:43;11.00;99.90
3268;DHT22;1646;52.450;13.326;2023-03-22T03:14:42;10.90;99.90
3268;DHT22;1646;52.450;13.326;2023-03-22T03:19:46;10.70;99.90
3268;DHT22;1646;52.450;13.326;2023-03-22T03:25:00;10.50;99.90
3268;DHT22;1646;52.450;13.326;2023-03-22T03:30:04;10.40;99.90
3268;DHT22;1646;52.450;13.326;2023-03-22T03:35:09;10.40;99.90
3268;DHT22;1646;52.450;13.326;2023-03-22T03:40:17;10.30;99.90
3268;DHT22;1646;52.450;13.326;2023-03-22T03:45:18;10.30;99.90
3268;DHT22;1646;52.450;13.326;2023-03-22T03:50:18;10.30;99.90
3268;DHT22;1646;52.450;13.326;2023-03-22T03:55:17;10.30;99.90
3268;DHT22;1646;52.450;13.326;2023-03-22T04:00:18;10.30;99.90
3268;DHT22;1646;52.450;13.326;2023-03-22T04:05:36;10.30;99.90
3268;DHT22;1646;52.450;13.326;2023-03-22T04:10:36;10.30;99.90
3268;DHT22;1646;52.450;13.326;2023-03-22T04:15:35;10.30;99.90
3268;DHT22;1646;52.450;13.326;2023-03-22T04:20:37;10.30;99.90
3268;DHT22;1646;52.450;13.326;2023-03-22T04:25:39;10.30;99.90
3268;DHT22;1646;52.450;13.326;2023-03-22T04:30:40;10.30;99.90
3268;DHT22;1646;52.450;13.326;2023-03-22T04:35:44;10.20;99.90
3268;DHT22;1646;52.450;13.326;2023-03-22T04:40:45;10.20;99.90
3268;DHT22;1646;52.450;13.326;2023-03-22T04:45:59;10.30;99.90
3268;DHT22;1646;52.450;13.326;2023-03-22T04:51:09;10.40;99.90
3268;DHT22;1646;52.450;13.326;2023-03-22T04:56:18;10.30;99.90
3268;DHT22;1646;52.450;13.326;2023-03-22T05:01:20;10.20;99.90
3268;DHT22;1646;52.450;13.326;2023-03-22T05:06:27;10.20;99.90
3268;DHT22;1646;52.450;13.326;2023-03-22T05:11:49;10.20;99.90
3268;DHT22;1646;52.450;13.326;2023-03-22T05:16:56;10.30;99.90
3268;DHT22;1646;52.450;13.326;2023-03-22T05:21:55;10.30;99.90
3268;DHT22;1646;52.450;13.326;2023-03-22T05:27:19;10.30;99.90
3268;DHT22;1646;52.450;13.326;2023-03-22T05:32:47;10.30;99.90
3268;DHT22;1646;52.450;13.326;2023-03-22T05:37:47;10.40;99.90
3268;DHT22;1646;52.450;13.326;2023-03-22T05:42:47;10.40;99.90
3268;DHT22;1646;52.450;13.326;2023-03-22T05:47:49;10.40;99.90
3268;DHT22;1646;52.450;13.326;2023-03-22T05:52:50;10.40;99.90
3268;DHT22;1646;52.450;13.326;2023-03-22T05:58:09;10.30;99.90
3268;DHT22;1646;52.450;13.326;2023-03-22T06:03:09;10.40;99.90
3268;DHT22;1646;52.450;13.326;2023-03-22T06:08:12;10.50;99.90
3268;DHT22;1646;52.450;13.326;2023-03-22T06:13:12;10.60;99.90
3268;DHT22;1646;52.450;13.326;2023-03-22T06:18:10;10.50;99.90
3268;DHT22;1646;52.450;13.326;2023-03-22T06:23:13;10.40;99.90
3268;DHT22;1646;52.450;13.326;2023-03-22T06:28:15;10.40;99.90
3268;DHT22;1646;52.450;13.326;2023-03-22T06:33:19;10.50;99.90
3268;DHT22;1646;52.450;13.326;2023-03-22T06:38:23;10.50;99.90
3268;DHT22;1646;52.450;13.326;2023-03-22T06:43:23;10.50;99.90
3268;DHT22;1646;52.450;13.326;2023-03-22T06:48:28;10.60;99.90
3268;DHT22;1646;52.450;13.326;2023-03-22T06:53:34;10.70;99.90
3268;DHT22;1646;52.450;13.326;2023-03-22T06:58:35;10.70;99.90
3268;DHT22;1646;52.450;13.326;2023-03-22T07:03:33;10.70;99.90
3268;DHT22;1646;52.450;13.326;2023-03-22T07:08:40;10.80;99.90
3268;DHT22;1646;52.450;13.326;2023-03-22T07:13:42;11.00;99.90
3268;DHT22;1646;52.450;13.326;2023-03-22T07:18:46;11.10;99.90
3268;DHT22;1646;52.450;13.326;2023-03-22T07:23:44;11.20;99.90
3268;DHT22;1646;52.450;13.326;2023-03-22T07:28:47;11.40;99.90
3268;DHT22;1646;52.450;13.326;2023-03-22T07:33:47;11.40;99.90
3268;DHT22;1646;52.450;13.326;2023-03-22T07:38:46;11.30;99.90
3268;DHT22;1646;52.450;13.326;2023-03-22T07:43:51;11.50;99.90
3268;DHT22;1646;52.450;13.326;2023-03-22T07:49:10;11.70;99.90
3268;DHT22;1646;52.450;13.326;2023-03-22T07:54:11;11.80;99.90
3268;DHT22;1646;52.450;13.326;2023-03-22T07:59:28;11.90;99.90
3268;DHT22;1646;52.450;13.326;2023-03-22T08:04:27;12.00;99.90
3268;DHT22;1646;52.450;13.326;2023-03-22T08:09:52;12.00;99.90
3268;DHT22;1646;52.450;13.326;2023-03-22T08:14:52;12.30;99.90
3268;DHT22;1646;52.450;13.326;2023-03-22T08:19:54;12.50;99.90
3268;DHT22;1646;52.450;13.326;2023-03-22T08:25:07;12.60;99.90
3268;DHT22;1646;52.450;13.326;2023-03-22T08:30:10;12.70;99.90
3268;DHT22;1646;52.450;13.326;2023-03-22T08:35:10;12.70;99.90
3268;DHT22;1646;52.450;13.326;2023-03-22T08:40:09;12.80;99.90
3268;DHT22;1646;52.450;13.326;2023-03-22T08:45:18;13.00;99.90
3268;DHT22;1646;52.450;13.326;2023-03-22T08:50:23;13.20;99.90
3268;DHT22;1646;52.450;13.326;2023-03-22T08:55:32;13.50;99.90
3268;DHT22;1646;52.450;13.326;2023-03-22T09:00:39;13.80;99.90
3268;DHT22;1646;52.450;13.326;2023-03-22T09:05:54;13.70;99.90
3268;DHT22;1646;52.450;13.326;2023-03-22T09:10:53;13.70;99.90
3268;DHT22;1646;52.450;13.326;2023-03-22T09:15:53;13.90;99.90
3268;DHT22;1646;52.450;13.326;2023-03-22T09:20:58;14.10;99.90
3268;DHT22;1646;52.450;13.326;2023-03-22T09:26:08;15.50;99.90
3268;DHT22;1646;52.450;13.326;2023-03-22T09:31:09;18.00;99.90
3268;DHT22;1646;52.450;13.326;2023-03-22T09:36:09;19.60;99.90
3268;DHT22;1646;52.450;13.326;2023-03-22T09:41:13;19.70;99.90
3268;DHT22;1646;52.450;13.326;2023-03-22T09:46:17;18.50;99.90
3268;DHT22;1646;52.450;13.326;2023-03-22T09:51:27;18.00;99.90
3268;DHT22;1646;52.450;13.326;2023-03-22T09:56:28;17.60;99.90
3268;DHT22;1646;52.450;13.326;2023-03-22T10:01:36;17.30;99.90
3268;DHT22;1646;52.450;13.326;2023-03-22T10:06:39;18.00;99.90
3268;DHT22;1646;52.450;13.326;2023-03-22T10:11:44;19.30;99.90
3268;DHT22;1646;52.450;13.326;2023-03-22T10:16:46;19.70;99.90
3268;DHT22;1646;52.450;13.326;2023-03-22T10:21:45;19.50;99.90
3268;DHT22;1646;52.450;13.326;2023-03-22T10:26:47;19.40;99.90
3268;DHT22;1646;52.450;13.326;2023-03-22T10:31:46;19.70;99.90
3268;DHT22;1646;52.450;13.326;2023-03-22T10:36:46;19.00;99.90
3268;DHT22;1646;52.450;13.326;2023-03-22T10:41:46;19.30;99.90
3268;DHT22;1646;52.450;13.326;2023-03-22T10:46:47;20.80;99.90
3268;DHT22;1646;52.450;13.326;2023-03-22T10:51:49;20.60;99.90
3268;DHT22;1646;52.450;13.326;2023-03-22T10:56:48;19.60;99.90
3268;DHT22;1646;52.450;13.326;2023-03-22T11:01:50;18.80;99.90
3268;DHT22;1646;52.450;13.326;2023-03-22T11:06:50;18.20;99.90
3268;DHT22;1646;52.450;13.326;2023-03-22T11:11:53;17.80;99.90
3268;DHT22;1646;52.450;13.326;2023-03-22T11:16:55;17.60;99.90
3268;DHT22;1646;52.450;13.326;2023-03-22T11:21:55;18.10;99.90
3268;DHT22;1646;52.450;13.326;2023-03-22T11:27:02;18.50;99.90
3268;DHT22;1646;52.450;13.326;2023-03-22T11:32:02;17.80;99.90
3268;DHT22;1646;52.450;13.326;2023-03-22T11:37:00;17.30;99.90
3268;DHT22;1646;52.450;13.326;2023-03-22T11:42:05;17.10;99.90
3268;DHT22;1646;52.450;13.326;2023-03-22T11:47:07;17.20;99.90
3268;DHT22;1646;52.450;13.326;2023-03-22T11:52:09;17.60;99.90
3268;DHT22;1646;52.450;13.326;2023-03-22T11:57:12;18.20;99.90
3268;DHT22;1646;52.450;13.326;2023-03-22T12:02:17;18.90;99.90
3268;DHT22;1646;52.450;13.326;2023-03-22T12:07:19;19.00;99.90
3268;DHT22;1646;52.450;13.326;2023-03-22T12:12:23;19.20;99.90
3268;DHT22;1646;52.450;13.326;2023-03-22T12:17:33;19.30;99.90
3268;DHT22;1646;52.450;13.326;2023-03-22T12:22:35;19.10;99.90
3268;DHT22;1646;52.450;13.326;2023-03-22T12:27:38;19.00;99.90
3268;DHT22;1646;52.450;13.326;2023-03-22T12:32:41;18.60;99.90
3268;DHT22;1646;52.450;13.326;2023-03-22T12:37:42;18.60;99.90
3268;DHT22;1646;52.450;13.326;2023-03-22T12:42:48;18.60;99.90
3268;DHT22;1646;52.450;13.326;2023-03-22T12:47:59;18.90;99.90
3268;DHT22;1646;52.450;13.326;2023-03-22T12:53:01;18.90;99.90
3268;DHT22;1646;52.450;13.326;2023-03-22T12:58:00;18.50;99.90
3268;DHT22;1646;52.450;13.326;2023-03-22T13:03:02;18.50;99.90
3268;DHT22;1646;52.450;13.326;2023-03-22T13:08:06;18.60;99.90
3268;DHT22;1646;52.450;13.326;2023-03-22T13:13:14;18.30;99.90
3268;DHT22;1646;52.450;13.326;2023-03-22T13:18:28;18.40;99.90
3268;DHT22;1646;52.450;13.326;2023-03-22T13:23:29;18.20;99.90
3268;DHT22;1646;52.450;13.326;2023-03-22T13:28:29;18.00;99.90
3268;DHT22;1646;52.450;13.326;2023-03-22T13:33:35;18.00;99.90
3268;DHT22;1646;52.450;13.326;2023-03-22T13:38:37;18.40;99.90
3268;DHT22;1646;52.450;13.326;2023-03-22T13:43:45;18.60;99.90
3268;DHT22;1646;52.450;13.326;2023-03-22T13:49:11;18.60;99.90
3268;DHT22;1646;52.450;13.326;2023-03-22T13:54:17;18.50;99.90
3268;DHT22;1646;52.450;13.326;2023-03-22T13:59:23;18.30;99.90
3268;DHT22;1646;52.450;13.326;2023-03-22T14:04:29;18.20;99.90
3268;DHT22;1646;52.450;13.326;2023-03-22T14:09:33;18.20;99.90
3268;DHT22;1646;52.450;13.326;2023-03-22T14:14:39;18.40;99.90
3268;DHT22;1646;52.450;13.326;2023-03-22T14:19:40;18.70;99.90
3268;DHT22;1646;52.450;13.326;2023-03-22T14:24:39;18.90;99.90
3268;DHT22;1646;52.450;13.326;2023-03-22T14:29:42;18.50;99.90
3268;DHT22;1646;52.450;13.326;2023-03-22T14:34:41;18.30;99.90
3268;DHT22;1646;52.450;13.326;2023-03-22T14:39:41;18.30;99.90
3268;DHT22;1646;52.450;13.326;2023-03-22T14:44:41;18.60;99.90
3268;DHT22;1646;52.450;13.326;2023-03-22T14:49:41;18.50;99.90
3268;DHT22;1646;52.450;13.326;2023-03-22T14:54:39;18.70;99.90
3268;DHT22;1646;52.450;13.326;2023-03-22T14:59:40;18.60;99.90
3268;DHT22;1646;52.450;13.326;2023-03-22T15:04:38;18.40;99.90
3268;DHT22;1646;52.450;13.326;2023-03-22T15:09:37;18.20;99.90
3268;DHT22;1646;52.450;13.326;2023-03-22T15:14:35;18.00;99.90
3268;DHT22;1646;52.450;13.326;2023-03-22T15:19:36;17.90;99.90
3268;DHT22;1646;52.450;13.326;2023-03-22T15:24:37;17.80;99.90
3268;DHT22;1646;52.450;13.326;2023-03-22T15:29:35;17.70;99.90
3268;DHT22;1646;52.450;13.326;2023-03-22T15:34:32;17.70;99.90
3268;DHT22;1646;52.450;13.326;2023-03-22T15:39:38;17.80;99.90
3268;DHT22;1646;52.450;13.326;2023-03-22T15:44:38;17.80;99.90
3268;DHT22;1646;52.450;13.326;2023-03-22T15:49:37;17.90;99.90
3268;DHT22;1646;52.450;13.326;2023-03-22T15:54:40;18.20;99.90
3268;DHT22;1646;52.450;13.326;2023-03-22T15:59:52;18.10;99.90
3268;DHT22;1646;52.450;13.326;2023-03-22T16:04:49;17.70;99.90
3268;DHT22;1646;52.450;13.326;2023-03-22T16:09:52;17.60;99.90
3268;DHT22;1646;52.450;13.326;2023-03-22T16:14:50;17.50;99.90
3268;DHT22;1646;52.450;13.326;2023-03-22T16:19:48;17.40;99.90
3268;DHT22;1646;52.450;13.326;2023-03-22T16:24:46;17.40;99.90
3268;DHT22;1646;52.450;13.326;2023-03-22T16:29:47;17.30;99.90
3268;DHT22;1646;52.450;13.326;2023-03-22T16:34:44;17.10;99.90
3268;DHT22;1646;52.450;13.326;2023-03-22T16:39:42;17.00;99.90
3268;DHT22;1646;52.450;13.326;2023-03-22T16:44:39;16.90;99.90
3268;DHT22;1646;52.450;13.326;2023-03-22T16:49:38;16.90;99.90
3268;DHT22;1646;52.450;13.326;2023-03-22T16:54:35;16.80;99.90
3268;DHT22;1646;52.450;13.326;2023-03-22T16:59:33;16.70;99.90
3268;DHT22;1646;52.450;13.326;2023-03-22T17:07:56;16.50;99.90
3268;DHT22;1646;52.450;13.326;2023-03-22T17:12:54;16.60;99.90
3268;DHT22;1646;52.450;13.326;2023-03-22T17:17:51;16.60;99.90
3268;DHT22;1646;52.450;13.326;2023-03-22T17:22:49;16.60;99.90
3268;DHT22;1646;52.450;13.326;2023-03-22T17:27:48;16.50;99.90
3268;DHT22;1646;52.450;13.326;2023-03-22T17:32:46;16.40;99.90
3268;DHT22;1646;52.450;13.326;2023-03-22T17:37:43;16.30;99.90
3268;DHT22;1646;52.450;13.326;2023-03-22T17:42:41;16.30;99.90
3268;DHT22;1646;52.450;13.326;2023-03-22T17:47:40;16.20;99.90
3268;DHT22;1646;52.450;13.326;2023-03-22T17:52:37;16.20;99.90
3268;DHT22;1646;52.450;13.326;2023-03-22T17:57:34;16.20;99.90
3268;DHT22;1646;52.450;13.326;2023-03-22T18:02:32;16.20;99.90
3268;DHT22;1646;52.450;13.326;2023-03-22T18:07:30;16.20;99.90
3268;DHT22;1646;52.450;13.326;2023-03-22T18:12:27;16.20;99.90
3268;DHT22;1646;52.450;13.326;2023-03-22T18:17:25;16.10;99.90
3268;DHT22;1646;52.450;13.326;2023-03-22T18:22:22;16.10;99.90
3268;DHT22;1646;52.450;13.326;2023-03-22T18:27:21;16.10;99.90
3268;DHT22;1646;52.450;13.326;2023-03-22T18:32:18;16.10;99.90
3268;DHT22;1646;52.450;13.326;2023-03-22T18:37:16;16.10;99.90
3268;DHT22;1646;52.450;13.326;2023-03-22T18:42:14;16.00;99.90
3268;DHT22;1646;52.450;13.326;2023-03-22T18:47:13;15.90;99.90
3268;DHT22;1646;52.450;13.326;2023-03-22T18:52:12;15.90;99.90
3268;DHT22;1646;52.450;13.326;2023-03-22T18:57:09;15.90;99.90
3268;DHT22;1646;52.450;13.326;2023-03-22T19:02:06;15.80;99.90
3268;DHT22;1646;52.450;13.326;2023-03-22T19:07:05;15.80;99.90
3268;DHT22;1646;52.450;13.326;2023-03-22T19:12:02;15.80;99.90
3268;DHT22;1646;52.450;13.326;2023-03-22T19:17:01;15.70;99.90
3268;DHT22;1646;52.450;13.326;2023-03-22T19:21:58;15.70;99.90
3268;DHT22;1646;52.450;13.326;2023-03-22T19:26:57;15.70;99.90
3268;DHT22;1646;52.450;13.326;2023-03-22T19:31:57;15.80;99.90
3268;DHT22;1646;52.450;13.326;2023-03-22T19:36:55;15.60;99.90
3268;DHT22;1646;52.450;13.326;2023-03-22T19:41:53;15.60;99.90
3268;DHT22;1646;52.450;13.326;2023-03-22T19:46:51;15.60;99.90
3268;DHT22;1646;52.450;13.326;2023-03-22T19:51:51;15.60;99.90
3268;DHT22;1646;52.450;13.326;2023-03-22T19:56:49;15.70;99.90
3268;DHT22;1646;52.450;13.326;2023-03-22T20:01:46;15.60;99.90
3268;DHT22;1646;52.450;13.326;2023-03-22T20:06:45;15.70;99.90
3268;DHT22;1646;52.450;13.326;2023-03-22T20:11:43;15.70;99.90
3268;DHT22;1646;52.450;13.326;2023-03-22T20:16:40;15.70;99.90
3268;DHT22;1646;52.450;13.326;2023-03-22T20:21:37;15.70;99.90
3268;DHT22;1646;52.450;13.326;2023-03-22T20:26:37;15.60;99.90
3268;DHT22;1646;52.450;13.326;2023-03-22T20:31:35;15.60;99.90
3268;DHT22;1646;52.450;13.326;2023-03-22T20:36:32;15.60;99.90
3268;DHT22;1646;52.450;13.326;2023-03-22T20:41:31;15.50;99.90
3268;DHT22;1646;52.450;13.326;2023-03-22T20:46:29;15.50;99.90
3268;DHT22;1646;52.450;13.326;2023-03-22T20:51:27;15.40;99.90
3268;DHT22;1646;52.450;13.326;2023-03-22T20:56:25;15.40;99.90
3268;DHT22;1646;52.450;13.326;2023-03-22T21:01:23;15.40;99.90
3268;DHT22;1646;52.450;13.326;2023-03-22T21:06:22;15.30;99.90
3268;DHT22;1646;52.450;13.326;2023-03-22T21:11:19;15.20;99.90
3268;DHT22;1646;52.450;13.326;2023-03-22T21:16:17;15.20;99.90
3268;DHT22;1646;52.450;13.326;2023-03-22T21:21:15;15.20;99.90
3268;DHT22;1646;52.450;13.326;2023-03-22T21:26:13;15.20;99.90
3268;DHT22;1646;52.450;13.326;2023-03-22T21:31:12;15.10;99.90
3268;DHT22;1646;52.450;13.326;2023-03-22T21:36:10;15.10;99.90
3268;DHT22;1646;52.450;13.326;2023-03-22T21:41:08;15.00;99.90
3268;DHT22;1646;52.450;13.326;2023-03-22T21:46:07;15.00;99.90
3268;DHT22;1646;52.450;13.326;2023-03-22T21:51:06;15.00;99.90
3268;DHT22;1646;52.450;13.326;2023-03-22T21:56:04;15.00;99.90
3268;DHT22;1646;52.450;13.326;2023-03-22T22:01:02;14.90;99.90
3268;DHT22;1646;52.450;13.326;2023-03-22T22:06:01;14.90;99.90
3268;DHT22;1646;52.450;13.326;2023-03-22T22:11:00;14.90;99.90
3268;DHT22;1646;52.450;13.326;2023-03-22T22:15:59;14.90;99.90
3268;DHT22;1646;52.450;13.326;2023-03-22T22:20:59;14.90;99.90
3268;DHT22;1646;52.450;13.326;2023-03-22T22:25:58;15.00;99.90
3268;DHT22;1646;52.450;13.326;2023-03-22T22:30:56;14.90;99.90
3268;DHT22;1646;52.450;13.326;2023-03-22T22:35:53;14.80;99.90
3268;DHT22;1646;52.450;13.326;2023-03-22T22:40:54;14.70;99.90
3268;DHT22;1646;52.450;13.326;2023-03-22T22:45:52;14.60;99.90
3268;DHT22;1646;52.450;13.326;2023-03-22T22:50:50;14.60;99.90
3268;DHT22;1646;52.450;13.326;2023-03-22T22:55:47;14.50;99.90
3268;DHT22;1646;52.450;13.326;2023-03-22T23:00:44;14.40;99.90
3268;DHT22;1646;52.450;13.326;2023-03-22T23:05:43;14.40;99.90
3268;DHT22;1646;52.450;13.326;2023-03-22T23:10:41;14.40;99.90
3268;DHT22;1646;52.450;13.326;2023-03-22T23:15:41;14.30;99.90
3268;DHT22;1646;52.450;13.326;2023-03-22T23:20:39;14.30;99.90
3268;DHT22;1646;52.450;13.326;2023-03-22T23:25:38;14.30;99.90
3268;DHT22;1646;52.450;13.326;2023-03-22T23:30:36;14.30;99.90
3268;DHT22;1646;52.450;13.326;2023-03-22T23:35:33;14.30;99.90
3268;DHT22;1646;52.450;13.326;2023-03-22T23:40:30;14.30;99.90
3268;DHT22;1646;52.450;13.326;2023-03-22T23:45:29;14.30;99.90
3268;DHT22;1646;52.450;13.326;2023-03-22T23:50:26;14.30;99.90
3268;DHT22;1646;52.450;13.326;2023-03-22T23:55:23;14.20;99.90
